Time;durP1;ratioP1;P1;durP2;ratioP2;P2;SDS_P1;SDS_P2;PMS_P1;PMS_P2;Temp;Humidity;BMP_temperature;BMP_pressure;BME280_temperature;BME280_humidity;BME280_pressure;Samples;Min_cycle;Max_cycle;Signal;HPM_P1;HPM_P2
2022/05/19 00:02:01;;;;;;;5.70;4.50;;;24.20;51.10;;;;;;5072624;28;20183;-80
2022/05/19 00:04:27;;;;;;;4.72;4.32;;;24.30;50.90;;;;;;5085651;28;20179;-82
2022/05/19 00:06:53;;;;;;;5.00;4.60;;;24.30;50.90;;;;;;5081428;28;20179;-80
2022/05/19 00:09:20;;;;;;;4.35;3.78;;;24.30;50.80;;;;;;5078738;28;20211;-81
2022/05/19 00:11:47;;;;;;;4.70;4.30;;;24.40;50.30;;;;;;5081291;28;20272;-83
2022/05/19 00:14:13;;;;;;;4.53;4.15;;;24.40;50.20;;;;;;5076038;28;20563;-80
2022/05/19 00:16:39;;;;;;;4.88;4.10;;;24.60;50.50;;;;;;5080805;28;20295;-80
2022/05/19 00:19:05;;;;;;;4.82;3.80;;;24.60;49.80;;;;;;5071988;28;20203;-81
2022/05/19 00:21:31;;;;;;;4.78;4.45;;;24.70;48.60;;;;;;5077540;28;20578;-82
2022/05/19 00:23:57;;;;;;;4.50;4.10;;;24.60;49.20;;;;;;5077304;28;20180;-81
2022/05/19 00:26:23;;;;;;;5.00;4.60;;;24.40;50.80;;;;;;5077095;28;20287;-81
2022/05/19 00:28:49;;;;;;;5.28;4.28;;;24.10;52.40;;;;;;5081288;28;20271;-81
2022/05/19 00:31:15;;;;;;;4.82;4.43;;;23.70;53.80;;;;;;5081590;28;20215;-82
2022/05/19 00:33:41;;;;;;;4.38;4.07;;;23.40;54.90;;;;;;5081260;28;20222;-81
2022/05/19 00:36:17;;;;;;;4.05;3.75;;;23.10;55.90;;;;;;5081478;28;20191;-82
2022/05/19 00:38:43;;;;;;;4.55;4.10;;;23.10;55.70;;;;;;5078256;28;20187;-82
2022/05/19 00:41:11;;;;;;;4.53;4.05;;;23.00;56.10;;;;;;5077428;28;20207;-81
2022/05/19 00:43:40;;;;;;;4.95;3.88;;;23.00;56.30;;;;;;5074426;28;20206;-81
2022/05/19 00:46:46;;;;;;;4.40;4.00;;;22.90;57.10;;;;;;5075766;28;20183;-81
2022/05/19 00:49:19;;;;;;;4.93;4.40;;;22.80;57.70;;;;;;5006429;28;20219;-82
2022/05/19 00:51:54;;;;;;;4.85;4.38;;;22.70;58.90;;;;;;5069847;28;20192;-82
2022/05/19 00:54:45;;;;;;;4.07;3.78;;;22.70;58.90;;;;;;5077334;28;20179;-82
2022/05/19 00:57:33;;;;;;;4.63;4.22;;;22.60;59.20;;;;;;5077257;28;20551;-82
2022/05/19 01:00:04;;;;;;;4.70;4.20;;;22.60;59.10;;;;;;5076402;28;20314;-82
2022/05/19 01:02:36;;;;;;;4.40;4.10;;;22.50;59.50;;;;;;5076898;28;20231;-82
2022/05/19 01:05:05;;;;;;;4.72;4.30;;;22.50;59.80;;;;;;5071842;28;20180;-81
2022/05/19 01:07:41;;;;;;;4.60;4.10;;;22.40;59.40;;;;;;5076790;28;20196;-82
2022/05/19 01:10:07;;;;;;;4.65;4.25;;;22.50;59.40;;;;;;5074722;28;20268;-81
2022/05/19 01:12:34;;;;;;;4.20;3.90;;;22.30;60.60;;;;;;5074089;28;20182;-82
2022/05/19 01:15:02;;;;;;;5.68;4.07;;;22.30;60.90;;;;;;5082883;28;20190;-81
2022/05/19 01:17:28;;;;;;;4.45;4.05;;;22.40;59.90;;;;;;5085260;28;20203;-81
2022/05/19 01:20:09;;;;;;;4.80;4.40;;;22.60;59.50;;;;;;5075949;28;20203;-81
2022/05/19 01:23:07;;;;;;;4.50;4.10;;;22.80;58.10;;;;;;5076572;28;20179;-83
2022/05/19 01:25:55;;;;;;;4.55;4.15;;;22.90;58.10;;;;;;5069422;28;20230;-84
2022/05/19 01:28:20;;;;;;;4.28;3.85;;;23.00;57.00;;;;;;5073364;28;20199;-83
2022/05/19 01:30:46;;;;;;;4.88;4.28;;;23.10;57.20;;;;;;5076491;28;20242;-82
2022/05/19 01:33:12;;;;;;;4.55;4.15;;;22.90;58.80;;;;;;5076612;28;20185;-83
2022/05/19 01:35:38;;;;;;;7.07;4.32;;;22.70;60.10;;;;;;5075630;28;20223;-81
2022/05/19 01:38:20;;;;;;;4.80;4.40;;;22.60;60.40;;;;;;5077629;28;20723;-80
2022/05/19 01:41:34;;;;;;;6.78;4.18;;;22.60;59.70;;;;;;5072563;28;20214;-80
2022/05/19 01:44:09;;;;;;;4.63;4.10;;;22.60;58.80;;;;;;5062926;28;20207;-82
2022/05/19 01:46:39;;;;;;;4.53;4.20;;;22.70;58.30;;;;;;5075790;28;20187;-82
2022/05/19 01:49:17;;;;;;;4.82;4.13;;;22.80;58.00;;;;;;5071637;28;20297;-82
2022/05/19 01:51:57;;;;;;;4.28;3.97;;;22.80;58.00;;;;;;5078164;28;20234;-81
2022/05/19 01:54:31;;;;;;;4.55;4.22;;;22.90;58.30;;;;;;5072074;28;20176;-82
2022/05/19 01:57:26;;;;;;;5.03;4.50;;;22.90;57.90;;;;;;5078534;28;20186;-83
2022/05/19 02:00:10;;;;;;;4.80;4.40;;;22.70;58.40;;;;;;5070266;28;20219;-83
2022/05/19 02:02:56;;;;;;;4.38;3.97;;;22.60;58.90;;;;;;5090089;28;20191;-83
2022/05/19 02:05:45;;;;;;;4.47;4.07;;;22.60;59.20;;;;;;5073626;28;20419;-82
2022/05/19 02:08:19;;;;;;;4.55;4.25;;;22.60;58.40;;;;;;5079334;28;20214;-82
2022/05/19 02:10:50;;;;;;;4.70;4.32;;;22.60;58.90;;;;;;5075286;28;20210;-82
2022/05/19 02:13:16;;;;;;;4.50;4.10;;;22.30;60.40;;;;;;5075723;28;20188;-82
2022/05/19 02:15:45;;;;;;;4.53;4.13;;;21.90;62.60;;;;;;5078621;28;20221;-82
2022/05/19 02:18:13;;;;;;;4.43;4.13;;;21.90;62.10;;;;;;5071730;28;20199;-82
2022/05/19 02:20:42;;;;;;;5.32;4.25;;;21.80;61.90;;;;;;5075932;28;20208;-82
2022/05/19 02:23:11;;;;;;;4.70;4.30;;;22.00;61.20;;;;;;5077858;28;20315;-82
2022/05/19 02:25:44;;;;;;;3.83;3.63;;;22.00;61.40;;;;;;5075456;28;20188;-84
2022/05/19 02:28:22;;;;;;;4.28;3.97;;;21.90;61.80;;;;;;5071958;28;20214;-83
2022/05/19 02:30:47;;;;;;;5.07;4.57;;;21.80;62.50;;;;;;5075704;28;20266;-81
2022/05/19 02:33:18;;;;;;;4.82;4.45;;;21.70;62.80;;;;;;5080043;28;20206;-82
2022/05/19 02:35:44;;;;;;;5.07;4.35;;;21.70;62.40;;;;;;5077810;28;20204;-83
2022/05/19 02:38:11;;;;;;;4.53;4.13;;;21.90;61.70;;;;;;5081574;28;20179;-83
2022/05/19 02:40:38;;;;;;;4.28;3.97;;;21.90;61.90;;;;;;5079398;28;20223;-83
2022/05/19 02:43:07;;;;;;;4.35;4.05;;;21.90;61.50;;;;;;5070762;28;20251;-82
2022/05/19 02:45:33;;;;;;;4.25;3.85;;;22.00;61.30;;;;;;5070369;28;20543;-83
2022/05/19 02:47:59;;;;;;;4.60;4.30;;;21.80;61.80;;;;;;5075996;28;20283;-83
2022/05/19 02:50:25;;;;;;;4.72;4.32;;;21.60;62.20;;;;;;5078484;28;20243;-82
2022/05/19 02:52:51;;;;;;;4.28;3.90;;;21.60;63.20;;;;;;5073161;28;20188;-82
2022/05/19 02:55:17;;;;;;;4.35;4.05;;;21.50;63.50;;;;;;5070345;28;20739;-83
2022/05/19 02:57:44;;;;;;;4.50;4.10;;;21.40;63.50;;;;;;5076635;28;20693;-82
2022/05/19 03:00:14;;;;;;;5.82;4.50;;;21.40;63.70;;;;;;5076533;28;20264;-83
2022/05/19 03:02:43;;;;;;;4.40;4.10;;;21.40;63.90;;;;;;5071010;28;20264;-82
2022/05/19 03:05:14;;;;;;;3.97;3.67;;;21.40;63.60;;;;;;5075993;28;20215;-83
2022/05/19 03:07:40;;;;;;;4.50;4.20;;;21.40;63.90;;;;;;5074638;28;20255;-82
2022/05/19 03:10:06;;;;;;;4.88;4.10;;;21.30;64.20;;;;;;5074014;28;20264;-83
2022/05/19 03:12:33;;;;;;;4.68;4.10;;;21.30;64.20;;;;;;5074301;28;20179;-81
2022/05/19 03:14:59;;;;;;;4.57;4.28;;;21.30;63.90;;;;;;5074475;28;20192;-81
2022/05/19 03:17:25;;;;;;;5.40;5.00;;;21.30;63.60;;;;;;5076557;28;20204;-81
2022/05/19 03:19:55;;;;;;;4.50;4.20;;;21.30;63.50;;;;;;5073740;28;20212;-81
2022/05/19 03:22:22;;;;;;;4.53;4.13;;;21.30;63.60;;;;;;5075007;28;20206;-82
2022/05/19 03:24:47;;;;;;;4.65;4.25;;;21.40;63.00;;;;;;5077467;28;20203;-82
2022/05/19 03:27:13;;;;;;;4.38;4.03;;;21.30;63.30;;;;;;5083460;28;20192;-82
2022/05/19 03:29:39;;;;;;;4.25;3.85;;;21.30;63.70;;;;;;5081011;28;20246;-82
2022/05/19 03:32:06;;;;;;;4.65;4.25;;;21.20;63.10;;;;;;5084047;28;20228;-82
2022/05/19 03:34:31;;;;;;;4.72;4.30;;;21.00;64.40;;;;;;5075892;28;20233;-82
2022/05/19 03:36:57;;;;;;;4.78;4.28;;;20.80;65.10;;;;;;5080653;28;20187;-80
2022/05/19 03:39:23;;;;;;;4.72;4.28;;;20.70;65.80;;;;;;5076379;28;20286;-83
2022/05/19 03:41:48;;;;;;;4.40;4.07;;;20.80;65.50;;;;;;5081500;28;20195;-81
2022/05/19 03:44:14;;;;;;;5.78;5.28;;;20.70;65.80;;;;;;5096240;28;20209;-80
2022/05/19 03:46:40;;;;;;;5.53;4.30;;;20.70;65.90;;;;;;5083089;28;20195;-80
2022/05/19 03:49:05;;;;;;;4.78;4.38;;;20.80;65.60;;;;;;5077185;28;20710;-82
2022/05/19 03:51:33;;;;;;;4.45;4.15;;;20.90;64.70;;;;;;5078242;28;20255;-84
2022/05/19 03:53:59;;;;;;;4.50;4.05;;;21.00;64.20;;;;;;5081255;28;20187;-82
2022/05/19 03:56:25;;;;;;;4.55;4.15;;;21.00;64.50;;;;;;5076478;28;20191;-82
2022/05/19 03:58:52;;;;;;;4.70;4.20;;;21.00;64.30;;;;;;5082665;28;20194;-82
2022/05/19 04:01:19;;;;;;;5.53;4.35;;;21.00;64.10;;;;;;5078637;28;20620;-82
2022/05/19 04:03:46;;;;;;;4.32;4.03;;;20.90;63.90;;;;;;5071707;28;20187;-81
2022/05/19 04:06:12;;;;;;;4.43;4.00;;;20.80;64.30;;;;;;5079433;28;20194;-80
2022/05/19 04:08:38;;;;;;;5.97;4.07;;;20.90;64.00;;;;;;5075776;28;20192;-82
2022/05/19 04:11:04;;;;;;;4.43;4.13;;;20.80;64.00;;;;;;5082779;28;20286;-83
2022/05/19 04:13:30;;;;;;;4.60;4.20;;;20.70;65.00;;;;;;5074708;28;20176;-82
2022/05/19 04:15:56;;;;;;;4.70;4.05;;;20.70;65.60;;;;;;5074115;28;20714;-80
2022/05/19 04:18:22;;;;;;;5.05;4.65;;;20.60;65.60;;;;;;5077860;28;20200;-84
2022/05/19 04:20:48;;;;;;;4.30;4.00;;;20.50;66.20;;;;;;5077072;28;20657;-83
2022/05/19 04:23:14;;;;;;;4.47;4.18;;;20.40;67.10;;;;;;5073797;28;20205;-82
2022/05/19 04:25:41;;;;;;;12.32;4.47;;;20.50;67.20;;;;;;5076695;28;20205;-81
2022/05/19 04:28:08;;;;;;;5.75;4.97;;;20.30;67.40;;;;;;5073304;28;20181;-82
2022/05/19 04:30:34;;;;;;;5.45;4.50;;;20.30;67.20;;;;;;5077174;28;20246;-83
2022/05/19 04:32:59;;;;;;;8.75;4.10;;;20.30;67.30;;;;;;5077479;28;20198;-81
2022/05/19 04:35:25;;;;;;;6.88;5.18;;;20.40;66.70;;;;;;5074930;28;20254;-80
2022/05/19 04:37:51;;;;;;;6.88;4.38;;;20.60;66.00;;;;;;5078484;28;20181;-81
2022/05/19 04:40:19;;;;;;;7.05;4.40;;;20.70;65.80;;;;;;5077173;28;20246;-81
2022/05/19 04:42:44;;;;;;;5.28;4.32;;;20.50;66.80;;;;;;5074482;28;20193;-82
2022/05/19 04:45:15;;;;;;;4.75;4.35;;;20.60;66.20;;;;;;5074750;28;20790;-81
2022/05/19 04:47:41;;;;;;;6.40;3.90;;;20.70;65.60;;;;;;5081968;28;20197;-83
2022/05/19 04:50:08;;;;;;;4.78;4.38;;;20.60;66.40;;;;;;5071761;28;20892;-80
2022/05/19 04:52:34;;;;;;;5.90;4.60;;;20.60;66.30;;;;;;5081036;28;20181;-82
2022/05/19 04:55:00;;;;;;;4.85;4.15;;;20.70;66.50;;;;;;5077884;28;20202;-81
2022/05/19 04:57:26;;;;;;;4.65;4.25;;;20.70;66.50;;;;;;5085465;28;20248;-82
2022/05/19 04:59:52;;;;;;;14.90;4.93;;;20.70;66.20;;;;;;5075778;28;20217;-80
2022/05/19 05:02:18;;;;;;;4.72;4.20;;;20.70;66.80;;;;;;5075094;28;20191;-82
2022/05/19 05:04:43;;;;;;;7.28;4.72;;;20.70;66.40;;;;;;5073670;28;20184;-82
2022/05/19 05:07:09;;;;;;;4.70;4.30;;;20.80;66.60;;;;;;5076308;28;20196;-81
2022/05/19 05:09:35;;;;;;;4.40;4.10;;;20.80;66.80;;;;;;5073202;28;20231;-82
2022/05/19 05:12:05;;;;;;;6.95;4.28;;;20.80;67.10;;;;;;5079340;28;20220;-82
2022/05/19 05:14:31;;;;;;;5.10;4.70;;;20.80;66.80;;;;;;5078928;28;20186;-82
2022/05/19 05:16:56;;;;;;;5.82;5.20;;;20.80;66.90;;;;;;5072554;28;20201;-82
2022/05/19 05:19:23;;;;;;;5.15;4.70;;;20.70;68.40;;;;;;5076216;28;20678;-80
2022/05/19 05:21:55;;;;;;;11.13;7.43;;;20.80;68.40;;;;;;5076533;28;20187;-80
2022/05/19 05:24:21;;;;;;;13.45;9.05;;;20.60;69.80;;;;;;5071635;28;20237;-79
2022/05/19 05:26:46;;;;;;;14.13;7.20;;;20.50;71.80;;;;;;5074972;28;20559;-80
2022/05/19 05:29:13;;;;;;;8.43;6.30;;;20.40;71.90;;;;;;5072923;28;20213;-82
2022/05/19 05:31:39;;;;;;;8.10;5.63;;;20.50;71.60;;;;;;5071018;28;20183;-83
2022/05/19 05:34:07;;;;;;;9.32;5.70;;;20.70;71.50;;;;;;5069237;28;20188;-83
2022/05/19 05:36:32;;;;;;;9.73;6.03;;;20.70;71.10;;;;;;5079631;28;20186;-83
2022/05/19 05:38:58;;;;;;;6.30;5.47;;;20.90;70.50;;;;;;5076106;28;20259;-84
2022/05/19 05:41:25;;;;;;;6.82;5.40;;;20.80;71.10;;;;;;5081905;28;20216;-85
2022/05/19 05:43:51;;;;;;;8.32;5.95;;;20.90;71.30;;;;;;5071224;28;20274;-83
2022/05/19 05:46:17;;;;;;;14.48;6.38;;;21.00;71.50;;;;;;5075250;28;20420;-84
2022/05/19 05:48:45;;;;;;;23.00;7.60;;;21.10;71.20;;;;;;5076713;28;20248;-84
2022/05/19 05:51:13;;;;;;;12.85;6.00;;;21.20;71.70;;;;;;5078549;28;20233;-81
2022/05/19 05:53:41;;;;;;;7.65;4.90;;;21.10;72.50;;;;;;5076046;28;20187;-84
2022/05/19 05:56:09;;;;;;;7.53;5.18;;;21.20;72.70;;;;;;5076180;28;20179;-83
2022/05/19 05:58:36;;;;;;;6.07;5.57;;;21.20;72.20;;;;;;5074830;28;20202;-83
2022/05/19 06:01:03;;;;;;;6.32;5.65;;;21.30;72.50;;;;;;5076589;28;20202;-83
2022/05/19 06:03:28;;;;;;;6.13;5.30;;;21.30;73.40;;;;;;5076699;28;20196;-83
2022/05/19 06:05:54;;;;;;;6.25;5.63;;;21.30;73.20;;;;;;5077232;28;20223;-82
2022/05/19 06:08:20;;;;;;;6.60;5.82;;;21.30;73.30;;;;;;5081259;28;20269;-82
2022/05/19 06:10:46;;;;;;;7.18;5.65;;;21.40;72.00;;;;;;5084597;28;20234;-84
2022/05/19 06:13:12;;;;;;;6.50;4.75;;;21.40;69.50;;;;;;5081938;28;20267;-83
2022/05/19 06:15:38;;;;;;;6.57;4.95;;;21.60;68.90;;;;;;5087866;28;20194;-82
2022/05/19 06:18:04;;;;;;;6.07;5.57;;;21.70;66.50;;;;;;5086539;28;20270;-82
2022/05/19 06:20:31;;;;;;;7.47;5.50;;;21.70;67.10;;;;;;5077771;28;20238;-83
2022/05/19 06:22:58;;;;;;;8.40;4.53;;;21.90;66.20;;;;;;5078518;28;20172;-82
2022/05/19 06:25:25;;;;;;;5.07;4.57;;;22.00;64.30;;;;;;5083884;28;20282;-81
2022/05/19 06:27:51;;;;;;;13.05;11.95;;;22.10;62.70;;;;;;5083096;28;20629;-83
2022/05/19 06:30:19;;;;;;;5.80;5.30;;;22.00;62.00;;;;;;5079072;28;20219;-82
2022/05/19 06:32:47;;;;;;;9.73;5.47;;;21.90;60.30;;;;;;5072707;28;20200;-83
2022/05/19 06:35:34;;;;;;;7.93;5.57;;;22.10;61.20;;;;;;5068549;28;20184;-83
2022/05/19 06:38:00;;;;;;;5.95;4.95;;;22.20;61.20;;;;;;5054433;28;20215;-83
2022/05/19 06:40:28;;;;;;;6.70;5.20;;;22.20;61.00;;;;;;5076536;28;20204;-83
2022/05/19 06:42:55;;;;;;;6.63;5.43;;;22.40;60.90;;;;;;5081130;28;20204;-83
2022/05/19 06:45:26;;;;;;;5.45;5.05;;;22.50;60.20;;;;;;5083406;28;20282;-81
2022/05/19 06:47:53;;;;;;;5.50;5.00;;;22.60;59.40;;;;;;5083133;28;20198;-81
2022/05/19 06:50:21;;;;;;;9.77;5.10;;;22.70;59.50;;;;;;5076285;28;20700;-84
2022/05/19 06:52:51;;;;;;;5.40;4.85;;;22.70;59.90;;;;;;5076650;28;20184;-82
2022/05/19 06:55:19;;;;;;;9.30;5.15;;;22.70;59.90;;;;;;5078297;28;20211;-83
2022/05/19 06:57:45;;;;;;;5.85;4.93;;;22.60;61.50;;;;;;5083751;28;20249;-84
2022/05/19 07:00:16;;;;;;;12.40;5.82;;;22.60;60.90;;;;;;5083295;28;20241;-83
2022/05/19 07:02:58;;;;;;;8.48;5.45;;;22.40;61.40;;;;;;5087681;28;20176;-81
2022/05/19 07:05:27;;;;;;;5.75;5.25;;;22.40;61.30;;;;;;5082002;28;20215;-83
2022/05/19 07:07:53;;;;;;;5.45;4.90;;;22.70;60.30;;;;;;5083748;28;20668;-82
2022/05/19 07:10:21;;;;;;;6.22;4.85;;;22.80;59.50;;;;;;5086867;28;20273;-83
2022/05/19 07:12:47;;;;;;;7.65;5.63;;;22.80;59.20;;;;;;5089240;28;20203;-82
2022/05/19 07:15:15;;;;;;;5.82;5.32;;;22.90;60.60;;;;;;5087674;28;20192;-83
2022/05/19 07:17:40;;;;;;;8.77;5.90;;;23.00;59.90;;;;;;5082639;28;20199;-83
2022/05/19 07:22:53;;;;;;;5.88;5.18;;;23.00;59.80;;;;;;5087074;28;20203;-82
2022/05/19 07:25:19;;;;;;;7.00;5.55;;;23.20;59.20;;;;;;5080795;28;20196;-82
2022/05/19 07:27:45;;;;;;;6.00;5.50;;;23.30;59.00;;;;;;5078901;28;20212;-83
2022/05/19 07:30:12;;;;;;;5.75;5.15;;;23.40;58.40;;;;;;5086542;28;20740;-83
2022/05/19 07:32:38;;;;;;;5.47;5.07;;;23.30;58.60;;;;;;5084500;28;20318;-83
2022/05/19 07:35:06;;;;;;;5.78;5.28;;;23.40;58.90;;;;;;5083311;28;20230;-84
2022/05/19 07:37:31;;;;;;;6.38;5.78;;;23.50;58.00;;;;;;5088860;28;20211;-82
2022/05/19 07:39:57;;;;;;;7.32;5.63;;;23.60;59.00;;;;;;5087682;28;20222;-83
2022/05/19 07:42:24;;;;;;;6.95;5.15;;;23.60;57.10;;;;;;5085382;28;20196;-83
2022/05/19 07:44:50;;;;;;;7.85;5.60;;;23.80;57.60;;;;;;5084718;28;20192;-84
2022/05/19 07:47:16;;;;;;;6.30;5.30;;;23.90;57.40;;;;;;5089986;28;20199;-81
2022/05/19 07:49:42;;;;;;;6.97;5.38;;;23.80;56.20;;;;;;5092372;28;20226;-82
2022/05/19 07:52:08;;;;;;;6.18;5.63;;;23.90;56.50;;;;;;5085636;28;20248;-84
2022/05/19 07:54:35;;;;;;;8.30;5.57;;;24.10;57.30;;;;;;5087521;28;20191;-84
2022/05/19 07:57:01;;;;;;;5.40;4.80;;;24.30;57.20;;;;;;5079354;28;20190;-83
2022/05/19 07:59:26;;;;;;;5.50;5.00;;;24.40;55.10;;;;;;5083755;28;20187;-81
2022/05/19 08:01:53;;;;;;;6.22;5.60;;;24.50;54.90;;;;;;5084631;28;20227;-83
2022/05/19 08:04:21;;;;;;;42.13;16.30;;;24.70;54.30;;;;;;5083845;28;20198;-81
2022/05/19 08:06:47;;;;;;;5.97;5.45;;;24.80;55.30;;;;;;5088623;28;20495;-82
2022/05/19 08:11:57;;;;;;;10.60;6.32;;;24.90;53.00;;;;;;5085219;28;20194;-81
2022/05/19 08:17:10;;;;;;;5.75;5.05;;;25.00;53.20;;;;;;5087200;28;20249;-81
2022/05/19 08:19:37;;;;;;;6.38;4.63;;;25.00;53.70;;;;;;5083757;28;20212;-82
2022/05/19 08:22:02;;;;;;;5.53;5.10;;;25.10;53.20;;;;;;5089042;28;20183;-81
2022/05/19 08:24:31;;;;;;;5.07;4.68;;;25.30;52.70;;;;;;5099654;28;20555;-80
2022/05/19 08:26:58;;;;;;;12.70;7.15;;;25.30;52.90;;;;;;5086783;28;20330;-82
2022/05/19 08:29:24;;;;;;;5.50;4.93;;;25.40;53.60;;;;;;5082707;28;21179;-82
2022/05/19 08:31:49;;;;;;;5.15;4.75;;;25.70;51.60;;;;;;5082514;28;20185;-82
2022/05/19 08:34:15;;;;;;;5.70;5.18;;;25.70;49.70;;;;;;5081011;28;20199;-81
2022/05/19 08:36:43;;;;;;;5.82;4.93;;;25.50;49.30;;;;;;5083760;28;20195;-82
2022/05/19 08:39:10;;;;;;;7.45;5.32;;;25.60;50.70;;;;;;5080983;28;20243;-81
2022/05/19 08:41:44;;;;;;;9.77;5.10;;;25.70;48.80;;;;;;5083767;28;20527;-81
2022/05/19 08:44:36;;;;;;;5.57;5.05;;;25.70;49.20;;;;;;5082220;28;20187;-81
2022/05/19 08:47:04;;;;;;;5.32;4.80;;;25.50;48.50;;;;;;5080592;28;20188;-82
2022/05/19 08:49:44;;;;;;;5.45;4.95;;;25.50;50.80;;;;;;5084111;28;20302;-82
2022/05/19 08:52:18;;;;;;;6.72;5.47;;;25.80;49.60;;;;;;5082279;28;20188;-83
2022/05/19 08:54:46;;;;;;;6.95;5.30;;;25.90;50.00;;;;;;5078014;28;20251;-85
2022/05/19 08:57:25;;;;;;;6.07;5.60;;;26.00;48.70;;;;;;5081475;28;20192;-82
2022/05/19 09:00:07;;;;;;;5.95;5.43;;;26.00;50.00;;;;;;5084627;28;20203;-82
2022/05/19 09:02:43;;;;;;;5.60;5.20;;;25.90;50.30;;;;;;5086592;28;20258;-82
2022/05/19 09:05:14;;;;;;;6.18;5.53;;;25.90;51.30;;;;;;5079029;28;20187;-83
2022/05/19 09:08:03;;;;;;;7.80;5.80;;;26.10;50.90;;;;;;5082676;28;20265;-83
2022/05/19 09:10:47;;;;;;;6.00;5.50;;;26.50;50.40;;;;;;5081541;28;20234;-82
2022/05/19 09:13:16;;;;;;;6.38;5.38;;;26.30;50.10;;;;;;5083903;28;20187;-81
2022/05/19 09:15:48;;;;;;;6.93;5.28;;;26.30;52.00;;;;;;5085141;28;20180;-82
2022/05/19 09:18:19;;;;;;;9.82;5.95;;;26.50;50.10;;;;;;5078489;28;20200;-82
2022/05/19 09:20:55;;;;;;;6.75;6.00;;;26.60;50.30;;;;;;5077464;28;20802;-82
2022/05/19 09:23:23;;;;;;;6.18;5.68;;;26.30;50.50;;;;;;5076734;28;20188;-82
2022/05/19 09:25:59;;;;;;;5.93;5.35;;;26.60;50.50;;;;;;5076764;28;20204;-83
2022/05/19 09:28:27;;;;;;;6.13;5.72;;;26.80;50.80;;;;;;5081290;28;20189;-82
2022/05/19 09:30:55;;;;;;;10.82;5.97;;;27.20;49.40;;;;;;5082089;28;20651;-82
2022/05/19 09:33:31;;;;;;;5.85;5.35;;;27.50;49.70;;;;;;5079129;28;20275;-83
2022/05/19 09:36:01;;;;;;;8.15;6.03;;;27.40;49.40;;;;;;5081292;28;20198;-82
2022/05/19 09:38:38;;;;;;;9.82;5.47;;;27.40;48.10;;;;;;5078741;28;20191;-82
2022/05/19 09:41:30;;;;;;;6.53;6.00;;;27.50;47.00;;;;;;5075515;28;20212;-83
2022/05/19 09:43:58;;;;;;;7.32;5.88;;;27.60;47.20;;;;;;5064971;28;20593;-83
2022/05/19 09:46:30;;;;;;;8.38;5.40;;;27.90;47.30;;;;;;5074413;28;20272;-83
2022/05/19 09:49:06;;;;;;;7.43;5.70;;;28.10;46.30;;;;;;5066380;28;20663;-83
2022/05/19 09:51:43;;;;;;;6.78;5.80;;;28.40;45.70;;;;;;5064360;28;20219;-82
2022/05/19 09:54:13;;;;;;;7.22;5.68;;;28.60;45.10;;;;;;5072420;28;20187;-86
2022/05/19 09:56:44;;;;;;;8.88;6.30;;;28.70;45.20;;;;;;5064019;28;20655;-85
2022/05/19 09:59:15;;;;;;;7.55;6.07;;;28.60;45.30;;;;;;5066843;28;20191;-83
2022/05/19 10:01:45;;;;;;;9.38;5.80;;;28.90;44.90;;;;;;5066615;28;20251;-82
2022/05/19 10:04:19;;;;;;;6.32;5.70;;;29.10;44.50;;;;;;5091100;28;20184;-83
2022/05/19 10:06:57;;;;;;;7.03;5.70;;;28.80;44.50;;;;;;5071430;28;20251;-83
2022/05/19 10:09:32;;;;;;;8.27;6.05;;;28.80;45.90;;;;;;5074424;28;20239;-83
2022/05/19 10:12:25;;;;;;;12.00;5.95;;;28.80;46.40;;;;;;5071182;28;20179;-82
2022/05/19 10:15:03;;;;;;;6.10;5.50;;;28.70;45.70;;;;;;5068778;28;20218;-82
2022/05/19 10:17:47;;;;;;;6.25;5.65;;;28.90;45.10;;;;;;5074771;28;20327;-83
2022/05/19 10:20:25;;;;;;;7.40;6.15;;;29.20;45.40;;;;;;5061750;28;20215;-83
2022/05/19 10:23:31;;;;;;;6.70;6.10;;;29.50;44.10;;;;;;5071299;28;20282;-83
2022/05/19 10:26:20;;;;;;;5.75;5.35;;;29.90;44.60;;;;;;5048729;28;20266;-82
2022/05/19 10:31:52;;;;;;;6.15;5.60;;;30.10;43.20;;;;;;5070508;28;20186;-84
2022/05/19 10:34:33;;;;;;;8.15;6.13;;;30.40;41.80;;;;;;5077875;28;20266;-85
2022/05/19 10:37:36;;;;;;;6.68;5.70;;;30.60;42.20;;;;;;5081610;28;20299;-83
2022/05/19 10:40:18;;;;;;;9.88;5.72;;;31.00;42.20;;;;;;5079782;28;20199;-84
2022/05/19 10:43:06;;;;;;;7.68;5.53;;;31.00;43.00;;;;;;5086061;28;20234;-83
2022/05/19 10:45:35;;;;;;;9.88;6.38;;;31.60;42.00;;;;;;5080471;28;20191;-83
2022/05/19 10:48:38;;;;;;;6.53;5.90;;;32.00;41.80;;;;;;5072658;28;20187;-85
2022/05/19 10:51:15;;;;;;;6.15;5.65;;;32.30;40.20;;;;;;5080968;28;20215;-83
2022/05/19 10:54:01;;;;;;;5.65;5.20;;;32.40;39.60;;;;;;5071908;28;20188;-82
2022/05/19 10:56:48;;;;;;;6.00;5.60;;;32.50;37.10;;;;;;5081704;28;20176;-82
2022/05/19 10:59:22;;;;;;;8.05;5.80;;;32.20;36.70;;;;;;5080205;28;20565;-83
2022/05/19 11:02:18;;;;;;;5.93;5.40;;;32.10;37.90;;;;;;5080107;28;20182;-83
2022/05/19 11:04:59;;;;;;;7.70;5.75;;;32.40;38.40;;;;;;5087647;28;20191;-83
2022/05/19 11:07:39;;;;;;;6.00;5.40;;;32.80;36.50;;;;;;5085244;28;20194;-83
2022/05/19 11:10:44;;;;;;;6.82;5.60;;;32.90;37.00;;;;;;5084385;28;20215;-83
2022/05/19 11:13:22;;;;;;;7.75;5.82;;;32.50;37.00;;;;;;5082488;28;20183;-83
2022/05/19 11:16:43;;;;;;;6.30;5.63;;;32.90;36.30;;;;;;5082427;28;20187;-83
2022/05/19 11:19:39;;;;;;;6.35;5.82;;;33.30;35.70;;;;;;5037899;28;20215;-84
2022/05/19 11:22:12;;;;;;;6.78;5.97;;;33.30;37.00;;;;;;5084134;28;20185;-83
2022/05/19 11:28:25;;;;;;;6.57;5.85;;;34.00;34.50;;;;;;5081258;28;20199;-82
2022/05/19 11:31:02;;;;;;;5.85;5.30;;;33.70;35.20;;;;;;5076307;28;20309;-83
2022/05/19 11:33:33;;;;;;;9.88;5.72;;;33.60;33.60;;;;;;5070581;28;20190;-84
2022/05/19 11:36:03;;;;;;;7.88;5.50;;;33.50;32.30;;;;;;5082218;28;20217;-84
2022/05/19 11:38:47;;;;;;;6.10;5.60;;;33.50;32.00;;;;;;5093328;28;20180;-84
2022/05/19 11:41:19;;;;;;;6.00;5.50;;;33.70;32.40;;;;;;5074710;28;20685;-83
2022/05/19 11:44:04;;;;;;;6.13;5.63;;;34.00;33.40;;;;;;5081343;28;20734;-84
2022/05/19 11:46:44;;;;;;;6.38;5.80;;;34.10;32.40;;;;;;5079980;28;20187;-84
2022/05/19 11:55:24;;;;;;;12.10;6.90;;;34.40;33.30;;;;;;5072041;28;20184;-84
2022/05/19 11:58:01;;;;;;;29.20;8.07;;;34.30;34.10;;;;;;5068983;28;20828;-84
2022/05/19 12:00:30;;;;;;;6.38;5.78;;;34.20;34.10;;;;;;5069548;28;20223;-84
2022/05/19 12:03:15;;;;;;;5.97;5.47;;;33.70;32.30;;;;;;5077983;28;20234;-84
2022/05/19 12:05:52;;;;;;;6.40;5.80;;;33.40;34.50;;;;;;5071653;28;20183;-84
2022/05/19 12:08:20;;;;;;;7.03;5.53;;;34.10;33.50;;;;;;5073960;28;20655;-83
2022/05/19 12:10:55;;;;;;;5.78;5.28;;;34.40;31.40;;;;;;5075984;28;20635;-83
2022/05/19 12:13:32;;;;;;;6.10;5.68;;;34.40;31.40;;;;;;5074165;28;20183;-84
2022/05/19 12:16:08;;;;;;;6.28;5.57;;;34.80;30.80;;;;;;5069689;28;20180;-84
2022/05/19 12:18:36;;;;;;;6.30;5.18;;;34.80;29.60;;;;;;5071507;28;20651;-83
2022/05/19 12:21:02;;;;;;;9.70;5.75;;;35.30;30.40;;;;;;5070462;28;20216;-84
2022/05/19 12:23:32;;;;;;;6.03;5.43;;;34.70;30.90;;;;;;5076636;28;20222;-84
2022/05/19 12:26:21;;;;;;;7.47;5.70;;;34.90;30.00;;;;;;5077244;28;20188;-84
2022/05/19 12:28:57;;;;;;;10.82;6.10;;;35.00;29.50;;;;;;5090225;28;20258;-83
2022/05/19 12:34:14;;;;;;;11.20;6.03;;;36.10;29.50;;;;;;5080853;28;20182;-83
2022/05/19 12:36:51;;;;;;;11.13;6.07;;;35.50;29.20;;;;;;5091262;28;20208;-84
2022/05/19 12:39:17;;;;;;;11.95;5.82;;;35.50;29.20;;;;;;5067263;28;20673;-84
2022/05/19 12:41:49;;;;;;;6.10;5.55;;;35.30;29.90;;;;;;5074370;28;20211;-84
2022/05/19 12:44:41;;;;;;;6.95;5.72;;;35.30;29.70;;;;;;5070299;28;20524;-84
2022/05/19 12:47:21;;;;;;;7.72;5.90;;;34.80;28.80;;;;;;5064671;28;20196;-83
2022/05/19 12:50:03;;;;;;;6.82;5.68;;;34.70;29.20;;;;;;5072545;28;20210;-84
2022/05/19 12:53:05;;;;;;;8.45;5.65;;;34.30;30.00;;;;;;5073562;28;20202;-84
2022/05/19 12:55:38;;;;;;;7.85;6.03;;;34.90;30.00;;;;;;5070195;28;20195;-84
2022/05/19 12:58:38;;;;;;;6.35;5.80;;;34.80;30.00;;;;;;5067460;28;20655;-84
2022/05/19 13:01:12;;;;;;;9.55;6.50;;;34.70;30.10;;;;;;5067313;28;20207;-83
2022/05/19 13:03:41;;;;;;;6.57;5.50;;;34.80;30.00;;;;;;5068185;28;20187;-83
2022/05/19 13:06:07;;;;;;;6.90;5.82;;;34.90;30.00;;;;;;5069339;28;20212;-83
2022/05/19 13:08:37;;;;;;;12.25;6.55;;;34.90;30.20;;;;;;5073594;28;20191;-84
2022/05/19 13:11:13;;;;;;;8.65;5.82;;;34.70;30.00;;;;;;5075638;28;20223;-84
2022/05/19 13:13:46;;;;;;;6.32;5.68;;;34.70;30.00;;;;;;5067564;28;20187;-83
2022/05/19 13:16:26;;;;;;;7.10;5.63;;;34.90;30.00;;;;;;5071308;28;20197;-84
2022/05/19 13:19:01;;;;;;;9.65;6.32;;;35.00;30.00;;;;;;5072409;28;20183;-84
2022/05/19 13:21:36;;;;;;;6.75;6.05;;;34.90;30.20;;;;;;5066384;28;20267;-83
2022/05/19 13:24:07;;;;;;;7.97;6.53;;;35.10;30.20;;;;;;5067838;28;20175;-83
2022/05/19 13:26:38;;;;;;;8.57;5.50;;;35.00;29.80;;;;;;5074972;28;20203;-84
2022/05/19 13:32:02;;;;;;;6.32;5.80;;;34.80;29.80;;;;;;5079061;28;20835;-84
2022/05/19 13:34:29;;;;;;;9.35;6.28;;;35.00;30.20;;;;;;5067255;28;20176;-84
2022/05/19 13:36:59;;;;;;;6.20;5.60;;;34.80;30.30;;;;;;5072456;28;20829;-84